Time;durP1;ratioP1;P1;durP2;ratioP2;P2;SDS_P1;SDS_P2;PMS_P1;PMS_P2;Temp;Humidity;BMP_temperature;BMP_pressure;BME280_temperature;BME280_humidity;BME280_pressure;Samples;Min_cycle;Max_cycle;Signal;HPM_P1;HPM_P2
2022/07/23 00:01:01;;;;;;;11.77;7.63;;;;;;;27.44;49.33;100081.09;5072771;28;20047;-68
2022/07/23 00:03:29;;;;;;;14.05;7.32;;;;;;;27.43;49.67;100083.00;5073393;28;20049;-68
2022/07/23 00:05:57;;;;;;;17.63;7.80;;;;;;;27.34;49.53;100085.06;5073529;28;20049;-68
2022/07/23 00:08:25;;;;;;;13.98;7.75;;;;;;;27.07;50.01;100080.53;5073437;28;20066;-72
2022/07/23 00:10:55;;;;;;;13.38;7.50;;;;;;;27.08;50.20;100079.47;5072015;28;20135;-72
2022/07/23 00:13:23;;;;;;;15.27;7.82;;;;;;;27.10;50.37;100067.25;5073483;28;20469;-71
2022/07/23 00:15:51;;;;;;;10.95;7.60;;;;;;;27.09;50.28;100075.69;5073077;28;20049;-70
2022/07/23 00:18:19;;;;;;;13.45;7.63;;;;;;;26.91;50.02;100076.19;5073510;28;20045;-71
2022/07/23 00:20:48;;;;;;;14.18;7.78;;;;;;;26.88;49.84;100078.50;5073083;28;20048;-71
2022/07/23 00:23:16;;;;;;;12.98;7.03;;;;;;;26.89;50.98;100074.72;5073159;28;20051;-71
2022/07/23 00:25:45;;;;;;;15.27;7.72;;;;;;;26.76;52.13;100076.34;5072779;28;20409;-71
2022/07/23 00:28:14;;;;;;;15.55;7.50;;;;;;;26.84;51.20;100075.34;5073281;28;20151;-71
2022/07/23 00:30:42;;;;;;;14.32;7.63;;;;;;;26.82;51.67;100075.50;5073123;28;20397;-70
2022/07/23 00:33:11;;;;;;;13.43;7.40;;;;;;;26.83;51.62;100084.59;5073115;28;20473;-69
2022/07/23 00:35:43;;;;;;;11.85;7.88;;;;;;;26.89;50.93;100089.25;5072617;28;20383;-69
2022/07/23 00:38:12;;;;;;;10.77;7.38;;;;;;;26.92;50.47;100083.34;5073387;28;20047;-69
2022/07/23 00:40:40;;;;;;;9.95;7.20;;;;;;;26.69;50.98;100091.88;5072874;28;20048;-70
2022/07/23 00:43:09;;;;;;;12.65;7.25;;;;;;;26.75;51.13;100090.22;5072938;28;20041;-69
2022/07/23 00:45:40;;;;;;;9.95;6.47;;;;;;;26.86;49.21;100092.41;5072924;28;20060;-69
2022/07/23 00:48:09;;;;;;;10.52;6.97;;;;;;;26.80;49.26;100094.03;5073103;28;20033;-69
2022/07/23 00:50:37;;;;;;;11.60;6.20;;;;;;;26.74;49.24;100100.31;5072757;28;20045;-70
2022/07/23 00:53:05;;;;;;;10.23;7.18;;;;;;;26.64;49.56;100097.09;5073054;28;20072;-70
2022/07/23 00:55:34;;;;;;;13.57;7.15;;;;;;;26.58;50.99;100100.63;5071542;28;20083;-70
2022/07/23 00:58:02;;;;;;;10.80;7.50;;;;;;;26.55;51.76;100095.56;5072878;28;20067;-69
2022/07/23 01:00:31;;;;;;;12.50;7.30;;;;;;;26.49;51.72;100090.88;5073055;28;20072;-72
2022/07/23 01:03:00;;;;;;;15.73;8.00;;;;;;;26.43;52.09;100089.78;5071109;28;20049;-70
2022/07/23 01:05:28;;;;;;;11.75;7.72;;;;;;;26.42;52.29;100084.50;5073075;28;20522;-69
2022/07/23 01:07:57;;;;;;;16.13;7.72;;;;;;;26.30;53.06;100086.91;5072584;28;20048;-69
2022/07/23 01:10:32;;;;;;;11.07;7.18;;;;;;;26.16;53.19;100085.97;5072682;28;20075;-69
2022/07/23 01:13:01;;;;;;;13.52;7.05;;;;;;;26.11;53.73;100082.13;5073974;28;20139;-70
2022/07/23 01:15:30;;;;;;;9.52;6.68;;;;;;;26.10;53.83;100081.28;5076560;28;20041;-69
2022/07/23 01:18:00;;;;;;;13.45;7.93;;;;;;;26.12;53.34;100090.13;5076561;28;20546;-69
2022/07/23 01:20:28;;;;;;;15.70;7.72;;;;;;;26.12;53.24;100090.13;5076567;28;20044;-70
2022/07/23 01:22:57;;;;;;;11.18;7.95;;;;;;;26.13;54.06;100085.50;5076335;28;20044;-74
2022/07/23 01:25:26;;;;;;;14.25;7.55;;;;;;;26.02;54.36;100078.69;5076419;28;20053;-73
2022/07/23 01:27:55;;;;;;;13.15;7.05;;;;;;;26.24;52.47;100077.59;5076398;28;20036;-73
2022/07/23 01:30:23;;;;;;;14.00;7.53;;;;;;;26.24;52.94;100077.59;5076517;28;20047;-73
2022/07/23 01:32:51;;;;;;;9.40;7.03;;;;;;;26.33;52.40;100075.56;5075056;28;20132;-72
2022/07/23 01:35:19;;;;;;;12.65;7.70;;;;;;;26.40;51.86;100072.94;5076281;28;20044;-68
2022/07/23 01:37:48;;;;;;;13.88;7.15;;;;;;;26.45;51.29;100078.66;5076074;28;20059;-70
2022/07/23 01:40:17;;;;;;;11.77;7.35;;;;;;;26.16;53.12;100080.50;5076205;28;20040;-69
2022/07/23 01:42:47;;;;;;;11.73;7.32;;;;;;;25.84;54.23;100075.56;5076215;28;20068;-73
2022/07/23 01:45:16;;;;;;;10.85;6.78;;;;;;;25.66;55.56;100085.03;5076225;28;20404;-76
2022/07/23 01:47:44;;;;;;;10.15;6.75;;;;;;;25.65;55.50;100077.88;5076107;28;20055;-76
2022/07/23 01:50:12;;;;;;;10.48;7.20;;;;;;;25.67;55.58;100075.81;5076069;28;20223;-75
2022/07/23 01:52:40;;;;;;;13.73;7.32;;;;;;;25.71;55.21;100076.28;5075507;28;20051;-76
2022/07/23 01:55:09;;;;;;;9.73;6.38;;;;;;;25.71;55.38;100080.91;5076104;28;20044;-75
2022/07/23 01:57:47;;;;;;;10.13;7.13;;;;;;;25.64;55.96;100076.19;5075998;28;20051;-76
2022/07/23 02:00:15;;;;;;;12.68;6.75;;;;;;;25.59;56.12;100073.22;5076037;28;20127;-77
2022/07/23 02:02:44;;;;;;;14.13;7.30;;;;;;;25.76;55.17;100073.81;5075745;28;20045;-77
2022/07/23 02:05:12;;;;;;;12.48;7.20;;;;;;;25.69;55.63;100073.72;5075876;28;20059;-76
2022/07/23 02:07:40;;;;;;;10.30;7.13;;;;;;;25.79;54.89;100072.59;5075684;28;20504;-83
2022/07/23 02:10:09;;;;;;;12.18;6.82;;;;;;;25.69;55.18;100078.34;5075793;28;20071;-76
2022/07/23 02:12:37;;;;;;;10.65;6.80;;;;;;;25.75;54.25;100068.53;5075705;28;20128;-75
2022/07/23 02:15:08;;;;;;;15.50;7.40;;;;;;;25.90;53.98;100074.81;5075612;28;20606;-76
2022/07/23 02:17:37;;;;;;;11.68;7.20;;;;;;;25.89;53.60;100070.38;5075965;28;20071;-76
2022/07/23 02:20:07;;;;;;;10.55;6.95;;;;;;;25.75;54.32;100074.00;5075649;28;20049;-76
2022/07/23 02:22:36;;;;;;;10.52;6.70;;;;;;;25.63;55.13;100069.03;5075665;28;20139;-75
2022/07/23 02:25:05;;;;;;;11.55;7.05;;;;;;;25.55;55.12;100071.88;5074195;28;20045;-76
2022/07/23 02:27:33;;;;;;;13.05;7.15;;;;;;;25.60;55.04;100072.16;5075668;28;20115;-76
2022/07/23 02:30:01;;;;;;;10.52;6.82;;;;;;;25.62;54.77;100072.81;5075150;28;20059;-76
2022/07/23 02:32:31;;;;;;;12.25;6.88;;;;;;;25.56;55.29;100076.31;5075252;28;20451;-76
2022/07/23 02:34:59;;;;;;;13.02;6.75;;;;;;;25.60;55.27;100077.63;5075236;28;20397;-76
2022/07/23 02:37:27;;;;;;;11.18;6.88;;;;;;;25.58;55.07;100076.97;5075434;28;20076;-76
2022/07/23 02:39:56;;;;;;;11.43;6.82;;;;;;;25.54;55.37;100080.28;5074721;28;20474;-77
2022/07/23 02:42:24;;;;;;;12.82;6.90;;;;;;;25.34;56.44;100082.78;5075025;28;20044;-73
2022/07/23 02:44:53;;;;;;;14.23;6.90;;;;;;;25.17;57.80;100084.03;5074612;28;20139;-73
2022/07/23 02:47:21;;;;;;;13.63;6.95;;;;;;;25.23;57.01;100088.75;5074050;28;20049;-73
2022/07/23 02:49:50;;;;;;;9.43;6.95;;;;;;;25.33;56.73;100086.56;5074916;28;20044;-74
2022/07/23 02:52:18;;;;;;;11.05;6.68;;;;;;;25.25;57.06;100089.38;5075074;28;20449;-75
2022/07/23 02:54:47;;;;;;;11.63;6.97;;;;;;;25.39;56.41;100088.53;5074980;28;20054;-76
2022/07/23 02:57:15;;;;;;;12.40;7.05;;;;;;;25.22;57.26;100076.13;5075066;28;20044;-75
2022/07/23 02:59:43;;;;;;;9.88;7.32;;;;;;;25.10;57.63;100084.81;5074714;28;20049;-79
2022/07/23 03:02:11;;;;;;;10.07;6.93;;;;;;;25.20;56.26;100079.06;5074815;28;20040;-76
2022/07/23 03:04:42;;;;;;;10.93;7.18;;;;;;;24.76;57.97;100079.91;5074590;28;20044;-76
2022/07/23 03:07:11;;;;;;;10.80;6.85;;;;;;;24.84;58.05;100071.63;5074945;28;20549;-77
2022/07/23 03:09:40;;;;;;;13.82;7.22;;;;;;;24.97;57.01;100072.84;5074509;28;20045;-78
2022/07/23 03:12:09;;;;;;;12.18;7.10;;;;;;;24.78;57.96;100072.38;5074178;28;20503;-73
2022/07/23 03:14:41;;;;;;;8.13;7.13;;;;;;;24.85;57.74;100072.47;5074677;28;20436;-73
2022/07/23 03:17:10;;;;;;;12.73;7.32;;;;;;;24.91;57.36;100079.91;5074236;28;20574;-73
2022/07/23 03:19:38;;;;;;;13.75;6.82;;;;;;;24.84;58.06;100076.25;5074379;28;20445;-72
2022/07/23 03:22:06;;;;;;;9.65;6.72;;;;;;;24.64;58.54;100083.28;5074364;28;20044;-72
2022/07/23 03:24:54;;;;;;;12.25;7.18;;;;;;;24.93;57.72;100083.28;5074120;28;20414;-72
2022/07/23 03:27:23;;;;;;;10.27;6.85;;;;;;;24.89;57.87;100079.22;5074409;28;20037;-73
2022/07/23 03:29:51;;;;;;;11.57;6.80;;;;;;;24.85;58.29;100080.66;5073917;28;20043;-74
2022/07/23 03:32:20;;;;;;;9.45;7.00;;;;;;;24.99;57.01;100082.50;5074000;28;20474;-75
2022/07/23 03:34:48;;;;;;;12.75;7.05;;;;;;;24.99;56.26;100082.50;5073681;28;20447;-71
2022/07/23 03:37:17;;;;;;;11.90;6.72;;;;;;;25.09;56.01;100083.13;5074015;28;20037;-70
2022/07/23 03:39:47;;;;;;;11.60;6.40;;;;;;;24.93;56.86;100075.09;5073906;28;20041;-79
2022/07/23 03:42:15;;;;;;;11.73;6.75;;;;;;;24.99;56.53;100077.06;5072631;28;20050;-74
2022/07/23 03:44:43;;;;;;;11.48;6.85;;;;;;;25.22;55.78;100078.88;5074047;28;20143;-73
2022/07/23 03:47:11;;;;;;;11.02;6.35;;;;;;;25.21;55.80;100079.91;5074112;28;20045;-73
2022/07/23 03:49:39;;;;;;;11.73;6.55;;;;;;;25.21;55.82;100083.47;5073969;28;20466;-74
2022/07/23 03:52:08;;;;;;;12.40;6.50;;;;;;;25.42;55.09;100082.69;5073407;28;20045;-72
2022/07/23 03:54:36;;;;;;;11.30;6.55;;;;;;;25.80;54.07;100086.06;5072432;28;20083;-72
2022/07/23 03:57:05;;;;;;;9.32;6.45;;;;;;;26.00;53.08;100086.25;5073431;28;20036;-73
2022/07/23 03:59:34;;;;;;;10.80;6.43;;;;;;;26.45;52.15;100081.41;5073583;28;20044;-73
2022/07/23 04:02:02;;;;;;;9.75;6.18;;;;;;;26.67;50.81;100088.50;5073263;28;20048;-72
2022/07/23 04:04:30;;;;;;;10.13;5.90;;;;;;;27.26;48.89;100087.13;5073644;28;20047;-71
2022/07/23 04:06:58;;;;;;;11.13;6.05;;;;;;;27.74;47.37;100095.31;5073460;28;20048;-72
2022/07/23 04:09:27;;;;;;;12.27;6.63;;;;;;;28.51;45.24;100087.38;5073759;28;20044;-73
2022/07/23 04:11:55;;;;;;;9.00;6.13;;;;;;;29.07;43.73;100089.59;5073015;28;20126;-73
2022/07/23 04:14:25;;;;;;;10.63;6.20;;;;;;;28.97;44.21;100094.72;5073637;28;20072;-73
2022/07/23 04:16:53;;;;;;;13.80;6.78;;;;;;;28.60;44.37;100087.16;5073242;28;20522;-74
2022/07/23 04:19:21;;;;;;;12.95;6.53;;;;;;;29.57;42.27;100088.97;5073604;28;20049;-77
2022/07/23 04:21:49;;;;;;;13.85;6.40;;;;;;;29.02;43.21;100094.88;5073205;28;20139;-74
2022/07/23 04:24:18;;;;;;;10.38;5.85;;;;;;;29.48;42.64;100085.66;5073094;28;20052;-74
2022/07/23 04:26:46;;;;;;;11.65;6.35;;;;;;;29.99;41.62;100095.69;5073499;28;20044;-75
2022/07/23 04:29:14;;;;;;;13.43;5.80;;;;;;;30.00;41.01;100097.38;5073479;28;20043;-71
2022/07/23 04:31:44;;;;;;;9.20;6.25;;;;;;;29.24;42.69;100094.59;5073126;28;20055;-72
2022/07/23 04:34:12;;;;;;;10.65;5.93;;;;;;;28.92;43.02;100097.25;5071683;28;20060;-71
2022/07/23 04:36:40;;;;;;;10.38;6.05;;;;;;;28.62;43.71;100093.28;5073173;28;20127;-71
2022/07/23 04:39:08;;;;;;;10.68;5.65;;;;;;;27.79;45.00;100103.75;5072869;28;20447;-71
2022/07/23 04:41:37;;;;;;;10.20;5.40;;;;;;;28.16;44.97;100099.59;5072975;28;20066;-71
2022/07/23 04:44:05;;;;;;;10.82;5.95;;;;;;;29.01;42.29;100092.38;5072968;28;20041;-71
2022/07/23 04:46:33;;;;;;;10.00;5.93;;;;;;;28.61;43.62;100111.63;5072718;28;20043;-71
2022/07/23 04:49:03;;;;;;;12.27;6.45;;;;;;;28.59;43.70;100104.69;5071664;28;20056;-71
2022/07/23 04:51:32;;;;;;;8.70;5.85;;;;;;;29.53;42.09;100099.59;5073230;28;20098;-71
2022/07/23 04:54:00;;;;;;;10.85;5.68;;;;;;;29.59;41.36;100106.94;5072854;28;20048;-72
2022/07/23 04:56:28;;;;;;;10.48;5.97;;;;;;;29.69;40.86;100106.44;5071810;28;20059;-71
2022/07/23 04:58:56;;;;;;;9.93;5.80;;;;;;;29.67;40.77;100110.50;5071410;28;20055;-72
2022/07/23 05:01:24;;;;;;;9.40;5.72;;;;;;;29.66;40.08;100117.06;5073007;28;20489;-72
2022/07/23 05:03:53;;;;;;;9.32;5.57;;;;;;;29.57;41.42;100109.06;5072847;28;20095;-75
2022/07/23 05:06:22;;;;;;;10.40;5.20;;;;;;;29.85;40.49;100111.44;5072738;28;20049;-75
2022/07/23 05:08:50;;;;;;;10.77;5.88;;;;;;;30.28;39.66;100105.22;5072908;28;20145;-82
2022/07/23 05:11:18;;;;;;;10.43;5.65;;;;;;;30.43;39.39;100104.91;5072965;28;20127;-75
2022/07/23 05:13:53;;;;;;;8.23;5.30;;;;;;;31.37;37.06;100105.63;5072677;28;20040;-76
2022/07/23 05:16:21;;;;;;;9.52;5.05;;;;;;;31.93;35.82;100104.44;5072629;28;20089;-73
2022/07/23 05:18:50;;;;;;;10.15;5.28;;;;;;;31.28;36.95;100097.69;5072910;28;20036;-74
2022/07/23 05:21:18;;;;;;;10.93;5.20;;;;;;;31.70;35.98;100097.75;5072740;28;20044;-75
2022/07/23 05:23:47;;;;;;;10.98;5.70;;;;;;;32.04;35.57;100098.09;5072897;28;20131;-75
2022/07/23 05:26:16;;;;;;;14.75;5.53;;;;;;;32.60;34.21;100102.28;5072050;28;20060;-75
2022/07/23 05:28:44;;;;;;;13.00;5.15;;;;;;;32.63;34.69;100101.81;5072524;28;20110;-69
2022/07/23 05:31:17;;;;;;;9.85;5.22;;;;;;;33.27;32.96;100097.19;5072599;28;20052;-69
2022/07/23 05:33:45;;;;;;;8.63;5.07;;;;;;;33.28;33.21;100098.84;5072481;28;20091;-71
2022/07/23 05:36:13;;;;;;;9.32;5.47;;;;;;;32.42;34.37;100101.31;5072232;28;20094;-71
2022/07/23 05:38:41;;;;;;;8.48;5.05;;;;;;;33.04;33.29;100103.63;5071404;28;20045;-70
2022/07/23 05:41:11;;;;;;;11.23;5.20;;;;;;;33.38;32.29;100104.63;5070908;28;20051;-71
2022/07/23 05:43:39;;;;;;;13.45;5.47;;;;;;;33.88;32.21;100098.47;5072324;28;20485;-70
2022/07/23 05:46:07;;;;;;;10.00;5.18;;;;;;;33.64;31.94;100103.22;5072231;28;20059;-70
2022/07/23 05:48:36;;;;;;;7.53;4.97;;;;;;;33.78;32.05;100098.22;5072627;28;20521;-72
2022/07/23 05:51:06;;;;;;;10.32;4.72;;;;;;;34.29;31.33;100107.47;5072007;28;20474;-72
2022/07/23 05:53:35;;;;;;;12.95;5.38;;;;;;;34.31;30.86;100100.56;5072534;28;20086;-73
2022/07/23 05:56:03;;;;;;;10.57;5.60;;;;;;;34.33;30.22;100095.63;5072069;28;20060;-73
2022/07/23 05:58:33;;;;;;;9.98;5.03;;;;;;;34.86;29.63;100093.41;5072627;28;20389;-73
2022/07/23 06:01:01;;;;;;;9.98;4.88;;;;;;;34.79;30.99;100092.75;5075747;28;20044;-74
2022/07/23 06:03:29;;;;;;;9.57;5.07;;;;;;;35.12;29.51;100092.69;5076136;28;20417;-73
2022/07/23 06:05:58;;;;;;;10.10;5.18;;;;;;;35.15;30.01;100091.34;5075762;28;20049;-74
2022/07/23 06:08:26;;;;;;;7.53;4.88;;;;;;;35.33;29.44;100101.28;5076003;28;20467;-73
2022/07/23 06:10:54;;;;;;;9.10;5.03;;;;;;;35.57;29.05;100094.38;5075432;28;20040;-88
2022/07/23 06:13:22;;;;;;;11.65;4.95;;;;;;;35.68;28.96;100098.09;5075799;28;20047;-74
2022/07/23 06:15:52;;;;;;;10.60;4.97;;;;;;;35.66;29.19;100091.97;5074493;28;20143;-72
2022/07/23 06:18:20;;;;;;;10.30;4.72;;;;;;;35.48;28.50;100084.84;5075464;28;20143;-69
2022/07/23 06:20:48;;;;;;;10.02;4.95;;;;;;;36.20;28.06;100081.72;5075325;28;20055;-70
2022/07/23 06:23:18;;;;;;;8.20;4.78;;;;;;;36.36;27.32;100075.19;5075252;28;20044;-70
2022/07/23 06:25:46;;;;;;;8.80;4.45;;;;;;;36.97;26.02;100072.84;5076457;28;20041;-69
2022/07/23 06:28:15;;;;;;;7.72;4.90;;;;;;;37.31;25.68;100074.38;5075521;28;20121;-71
2022/07/23 06:30:43;;;;;;;8.02;4.93;;;;;;;37.76;25.56;100068.13;5075183;28;20048;-70
2022/07/23 06:33:13;;;;;;;7.93;5.03;;;;;;;37.29;26.15;100071.84;5073712;28;20131;-70
2022/07/23 06:35:41;;;;;;;7.60;4.70;;;;;;;37.59;25.89;100075.84;5074109;28;20046;-74
2022/07/23 06:38:09;;;;;;;10.05;5.07;;;;;;;37.18;26.87;100070.13;5073453;28;20076;-68
2022/07/23 06:40:38;;;;;;;10.23;4.97;;;;;;;37.25;26.77;100079.03;5073992;28;20044;-70
2022/07/23 06:43:06;;;;;;;9.50;5.25;;;;;;;37.44;26.28;100079.41;5074976;28;20579;-70
2022/07/23 06:45:34;;;;;;;10.52;5.20;;;;;;;37.90;25.63;100079.56;5074905;28;20123;-70
2022/07/23 06:48:03;;;;;;;11.85;5.25;;;;;;;37.95;25.36;100074.00;5075023;28;20049;-71
2022/07/23 06:50:32;;;;;;;9.00;5.35;;;;;;;37.97;25.36;100075.38;5074691;28;20040;-68
2022/07/23 06:53:00;;;;;;;12.02;5.72;;;;;;;37.94;25.51;100070.38;5074941;28;20055;-70
2022/07/23 06:55:28;;;;;;;9.30;5.60;;;;;;;37.92;25.34;100074.53;5075048;28;20087;-66
2022/07/23 06:57:56;;;;;;;10.57;5.28;;;;;;;37.75;25.52;100060.88;5074734;28;20044;-67
2022/07/23 07:00:26;;;;;;;13.43;5.25;;;;;;;37.97;25.68;100069.81;5074411;28;20063;-68
2022/07/23 07:02:55;;;;;;;11.40;4.90;;;;;;;38.24;25.23;100069.56;5075026;28;20076;-69
2022/07/23 07:05:25;;;;;;;8.52;5.20;;;;;;;37.94;25.88;100063.97;5073608;28;20048;-69
2022/07/23 07:07:54;;;;;;;11.93;4.72;;;;;;;37.20;25.60;100067.91;5074710;28;20051;-70
2022/07/23 07:10:23;;;;;;;8.43;4.40;;;;;;;36.14;27.19;100066.09;5074053;28;20058;-68
2022/07/23 07:12:51;;;;;;;10.88;4.95;;;;;;;35.88;29.15;100062.25;5074566;28;20068;-69
2022/07/23 07:15:19;;;;;;;12.13;4.95;;;;;;;35.81;27.50;100067.16;5073087;28;20075;-69
2022/07/23 07:17:47;;;;;;;10.30;5.05;;;;;;;35.67;28.34;100061.19;5072823;28;20508;-69
2022/07/23 07:20:16;;;;;;;8.45;5.47;;;;;;;35.80;27.98;100066.31;5073975;28;20041;-69
2022/07/23 07:22:44;;;;;;;9.70;5.22;;;;;;;35.42;28.30;100052.59;5073025;28;20106;-71
2022/07/23 07:25:13;;;;;;;12.70;5.35;;;;;;;35.67;28.51;100050.09;5073871;28;20448;-71
2022/07/23 07:27:43;;;;;;;10.15;5.30;;;;;;;35.19;29.13;100043.44;5074518;28;20063;-69
2022/07/23 07:30:12;;;;;;;9.35;4.93;;;;;;;35.24;28.62;100046.28;5073884;28;20125;-71
2022/07/23 07:32:41;;;;;;;10.90;5.20;;;;;;;35.29;28.40;100049.09;5073099;28;20049;-70
2022/07/23 07:35:25;;;;;;;10.98;5.53;;;;;;;35.26;27.88;100054.34;5073046;28;20135;-70
2022/07/23 07:37:53;;;;;;;12.35;5.38;;;;;;;34.88;29.58;100047.75;5072829;28;20135;-70
2022/07/23 07:40:23;;;;;;;10.10;5.20;;;;;;;34.86;29.52;100051.88;5073692;28;20044;-70
2022/07/23 07:42:57;;;;;;;11.90;5.55;;;;;;;34.69;29.23;100044.44;5074191;28;20101;-70
2022/07/23 07:45:25;;;;;;;8.32;5.50;;;;;;;34.74;28.84;100049.19;5074096;28;20059;-70
2022/07/23 07:47:54;;;;;;;9.93;5.03;;;;;;;34.90;28.93;100053.03;5073920;28;20040;-70
2022/07/23 07:50:22;;;;;;;10.63;5.00;;;;;;;34.93;28.85;100052.53;5073536;28;20055;-70
2022/07/23 07:52:51;;;;;;;10.90;5.70;;;;;;;34.82;29.31;100050.69;5073744;28;20481;-70
2022/07/23 07:55:19;;;;;;;12.70;5.30;;;;;;;34.89;29.46;100048.59;5073634;28;20050;-70
2022/07/23 07:57:49;;;;;;;8.77;5.20;;;;;;;35.07;28.51;100045.50;5073586;28;20036;-70
2022/07/23 08:00:18;;;;;;;10.55;5.38;;;;;;;35.10;29.04;100044.97;5072117;28;20052;-69
2022/07/23 08:02:48;;;;;;;12.70;4.85;;;;;;;35.17;28.31;100040.09;5072601;28;20056;-70
2022/07/23 08:05:20;;;;;;;11.18;5.13;;;;;;;35.19;29.06;100040.66;5072122;28;20056;-70
2022/07/23 08:07:55;;;;;;;13.40;5.38;;;;;;;35.25;28.58;100041.56;5073705;28;20076;-69
2022/07/23 08:10:24;;;;;;;9.18;5.05;;;;;;;35.16;29.23;100052.28;5072055;28;20052;-69
2022/07/23 08:12:56;;;;;;;8.75;4.82;;;;;;;35.10;28.66;100047.75;5072235;28;20052;-69
2022/07/23 08:15:25;;;;;;;8.88;4.38;;;;;;;34.78;29.19;100044.00;5073232;28;20080;-69
2022/07/23 08:17:54;;;;;;;10.95;4.68;;;;;;;34.74;28.74;100040.88;5073083;28;20504;-69
2022/07/23 08:20:24;;;;;;;7.07;4.55;;;;;;;34.57;28.42;100045.63;5073155;28;20119;-69
2022/07/23 08:22:54;;;;;;;7.13;4.28;;;;;;;34.76;27.77;100044.25;5072864;28;20087;-69
2022/07/23 08:25:24;;;;;;;7.60;4.20;;;;;;;35.06;27.33;100049.38;5071851;28;20049;-69
2022/07/23 08:27:54;;;;;;;9.70;4.57;;;;;;;35.22;26.88;100042.91;5073325;28;20048;-69
2022/07/23 08:30:22;;;;;;;8.63;4.72;;;;;;;35.42;27.42;100047.03;5072772;28;20524;-69
2022/07/23 08:33:00;;;;;;;9.18;4.43;;;;;;;35.70;27.06;100041.22;5073410;28;20040;-69
2022/07/23 08:35:31;;;;;;;7.75;4.82;;;;;;;35.68;26.77;100040.66;5073444;28;20098;-69
2022/07/23 08:38:00;;;;;;;7.28;4.18;;;;;;;35.61;26.42;100040.03;5071755;28;20052;-69
2022/07/23 08:40:31;;;;;;;7.05;4.30;;;;;;;35.73;27.13;100049.06;5073169;28;20114;-69
2022/07/23 08:43:00;;;;;;;9.02;5.20;;;;;;;35.72;26.51;100047.38;5073013;28;20036;-70
2022/07/23 08:45:29;;;;;;;8.73;4.50;;;;;;;35.47;27.13;100044.34;5071803;28;20477;-69
2022/07/23 08:47:59;;;;;;;8.82;4.75;;;;;;;35.63;27.92;100048.94;5073140;28;20068;-69
2022/07/23 08:50:30;;;;;;;8.50;4.55;;;;;;;35.50;27.18;100046.56;5073053;28;20102;-69
2022/07/23 08:53:01;;;;;;;7.65;4.38;;;;;;;35.29;27.73;100037.16;5071582;28;20151;-69
2022/07/23 08:55:29;;;;;;;9.35;4.82;;;;;;;35.33;27.25;100030.03;5071118;28;20055;-69
2022/07/23 08:57:57;;;;;;;8.90;4.70;;;;;;;35.61;26.16;100033.66;5072643;28;20051;-69
2022/07/23 09:00:27;;;;;;;8.25;4.57;;;;;;;35.71;26.69;100034.63;5072739;28;20048;-67
2022/07/23 09:02:55;;;;;;;8.57;4.43;;;;;;;35.90;26.48;100048.09;5071613;28;20493;-69
2022/07/23 09:05:23;;;;;;;10.85;4.82;;;;;;;35.98;26.17;100042.06;5072906;28;20041;-68
2022/07/23 09:08:12;;;;;;;8.40;4.60;;;;;;;35.98;25.87;100031.81;5073137;28;20477;-72
2022/07/23 09:10:59;;;;;;;7.43;4.25;;;;;;;35.95;25.96;100028.75;5071855;28;20052;-72
2022/07/23 09:13:33;;;;;;;9.48;4.85;;;;;;;36.02;26.17;100029.38;5072486;28;20044;-70
2022/07/23 09:16:06;;;;;;;8.45;4.38;;;;;;;36.04;25.90;100027.16;5068734;28;20402;-74
2022/07/23 09:18:39;;;;;;;8.40;4.22;;;;;;;36.10;26.47;100026.09;5070756;28;20055;-74
2022/07/23 09:21:22;;;;;;;7.22;4.15;;;;;;;36.01;26.38;100031.31;5068351;28;20052;-76
2022/07/23 09:23:54;;;;;;;10.90;4.45;;;;;;;36.28;25.71;100033.97;5071023;28;20037;-76
2022/07/23 09:26:26;;;;;;;8.07;4.38;;;;;;;36.36;25.46;100030.75;5071242;28;20053;-75
2022/07/23 09:28:57;;;;;;;8.50;4.60;;;;;;;36.44;25.68;100031.34;5070777;28;20048;-79
2022/07/23 09:31:33;;;;;;;7.75;4.40;;;;;;;36.40;25.88;100028.28;5066451;28;20057;-76
2022/07/23 09:34:09;;;;;;;8.98;4.65;;;;;;;36.18;25.86;100025.59;5060027;28;20045;-73
2022/07/23 09:36:38;;;;;;;8.95;4.80;;;;;;;36.33;25.95;100025.69;5055947;28;20461;-72
2022/07/23 09:39:08;;;;;;;7.60;4.40;;;;;;;36.50;25.82;100025.56;5054035;28;20049;-71
2022/07/23 09:41:39;;;;;;;7.32;4.10;;;;;;;36.54;25.03;100025.88;5072882;28;20067;-70
2022/07/23 09:44:13;;;;;;;7.45;4.25;;;;;;;36.45;25.18;100024.69;5074520;28;20547;-70
2022/07/23 09:46:44;;;;;;;11.15;4.55;;;;;;;36.45;25.52;100019.13;5075368;28;20482;-70
2022/07/23 09:49:15;;;;;;;13.18;4.97;;;;;;;36.45;25.63;100014.41;5075393;28;20040;-69
2022/07/23 09:51:52;;;;;;;9.73;4.20;;;;;;;36.58;25.49;100011.19;5076232;28;20083;-70
2022/07/23 09:54:26;;;;;;;8.20;4.28;;;;;;;36.29;25.77;100018.16;5075600;28;20473;-69
2022/07/23 09:56:56;;;;;;;11.18;4.32;;;;;;;36.33;25.10;100014.59;5075875;28;20048;-70
2022/07/23 09:59:27;;;;;;;9.23;3.88;;;;;;;36.45;25.74;100016.38;5074141;28;20053;-69
2022/07/23 10:01:59;;;;;;;8.10;4.53;;;;;;;36.46;25.72;100006.94;5075750;28;20481;-69
2022/07/23 10:04:28;;;;;;;;;;;;;;;36.48;25.51;100008.34;5075820;28;20041;-69
2022/07/23 10:06:58;;;;;;;6.95;4.13;;;;;;;36.54;25.09;100011.97;5074327;28;19927;-70
2022/07/23 10:09:29;;;;;;;6.22;4.10;;;;;;;36.36;25.60;100002.16;5075464;28;20051;-69
2022/07/23 10:12:12;;;;;;;7.80;4.50;;;;;;;36.52;24.77;100000.31;5075550;28;20037;-71
2022/07/23 10:14:41;;;;;;;6.55;3.97;;;;;;;36.41;25.28;100004.97;5075388;28;20037;-70
2022/07/23 10:17:11;;;;;;;8.98;4.18;;;;;;;36.60;24.89;99997.03;5075067;28;20055;-70
2022/07/23 10:19:40;;;;;;;7.95;4.38;;;;;;;36.74;24.90;99994.56;5075319;28;20041;-69
2022/07/23 10:22:11;;;;;;;8.68;4.32;;;;;;;36.68;25.01;99993.72;5075287;28;20048;-69
2022/07/23 10:24:48;;;;;;;7.53;3.90;;;;;;;36.86;24.47;99979.38;5075465;28;20041;-69
2022/07/23 10:27:42;;;;;;;5.95;3.72;;;;;;;36.82;25.02;99989.34;5073857;28;20537;-70
2022/07/23 10:30:15;;;;;;;7.72;4.07;;;;;;;36.94;24.35;99983.56;5073833;28;20057;-73
2022/07/23 10:32:55;;;;;;;6.88;4.10;;;;;;;36.86;24.48;99982.16;5074308;28;20052;-69
2022/07/23 10:35:30;;;;;;;9.43;4.50;;;;;;;36.90;24.22;99982.47;5073951;28;20079;-69
2022/07/23 10:38:08;;;;;;;11.48;4.15;;;;;;;36.87;23.82;99983.84;5073891;28;20044;-69
2022/07/23 10:40:36;;;;;;;9.02;4.35;;;;;;;36.93;24.24;99979.97;5074083;28;20477;-69
2022/07/23 10:43:16;;;;;;;9.25;4.50;;;;;;;36.93;24.46;99982.75;5074016;28;20401;-69
2022/07/23 10:45:49;;;;;;;8.27;4.57;;;;;;;36.91;24.07;99971.06;5074502;28;20064;-69
2022/07/23 10:48:21;;;;;;;11.15;4.50;;;;;;;37.12;23.96;99973.91;5073729;28;20056;-70
2022/07/23 10:51:10;;;;;;;7.20;4.45;;;;;;;37.10;23.75;99967.78;5075279;28;20041;-69
2022/07/23 10:53:56;;;;;;;8.30;4.70;;;;;;;37.25;23.83;99968.69;5073966;28;20098;-69
2022/07/23 10:57:06;;;;;;;12.57;4.57;;;;;;;37.11;24.07;99963.91;5074498;28;20045;-69
2022/07/23 11:00:12;;;;;;;9.50;4.97;;;;;;;37.21;24.10;99961.13;5074613;28;20068;-69
2022/07/23 11:02:41;;;;;;;13.57;5.20;;;;;;;37.23;23.75;99956.97;5074633;28;20126;-69
2022/07/23 11:05:13;;;;;;;11.38;5.15;;;;;;;37.11;23.82;99963.91;5074876;28;20047;-69
2022/07/23 11:08:16;;;;;;;10.57;5.20;;;;;;;37.36;23.53;99955.66;5073558;28;20132;-69
2022/07/23 11:10:47;;;;;;;6.25;5.07;;;;;;;37.38;23.78;99947.84;5074546;28;20083;-69
2022/07/23 11:13:30;;;;;;;6.37;4.73;;;;;;;37.57;23.68;99947.31;5074196;28;20051;-70
2022/07/23 11:16:10;;;;;;;8.73;5.20;;;;;;;37.71;23.10;99951.19;5073303;28;20055;-69
2022/07/23 11:19:05;;;;;;;9.82;4.88;;;;;;;37.49;23.61;99935.63;5074792;28;20037;-70
2022/07/23 11:21:51;;;;;;;9.45;4.90;;;;;;;37.64;23.60;99936.72;5074020;28;20048;-69
2022/07/23 11:24:21;;;;;;;7.63;4.90;;;;;;;37.64;23.37;99933.94;5073235;28;20452;-69
2022/07/23 11:26:53;;;;;;;9.50;5.50;;;;;;;37.59;23.33;99923.66;5074625;28;20432;-69
2022/07/23 11:29:44;;;;;;;9.25;5.22;;;;;;;37.67;23.03;99917.53;5074096;28;20445;-70
2022/07/23 11:32:38;;;;;;;10.23;4.93;;;;;;;37.61;23.70;99920.59;5074279;28;20051;-70
2022/07/23 11:35:21;;;;;;;11.32;5.43;;;;;;;37.65;23.15;99914.22;5074211;28;20040;-69
2022/07/23 11:37:58;;;;;;;9.57;4.90;;;;;;;37.75;23.19;99918.94;5072827;28;20045;-69